• Join FlightAware (Why Join?)
  • Login
  • US Flag 
04:50PM EDT


 

Airport Tracker/Info


-or-


 

Live Flight TrackerFlight Track Log ✈ SWA3211 ✈ 24-Jul-2013 ✈ KBWI - KSEA

Flight Track Log - Related Links

Times and Time Zones

All times are in EDT time to prevent confusion due to time zone crossing. See the SWA3211 flight status page for this flight to view local times or setup timezone preferences in your user account.

Time Position Orientation Groundspeed Altitude Reporting Facility
EDT Latitude Longitude Course Direction KTS MPH feet Rate Location/Type
05:25PM 39.1833 -76.7167 270° West 171 197 1,700  Level Potomac TRACON
05:26PM 39.1833 -76.8000 270° West 223 257 4,100 2,580 Climbing Potomac TRACON
05:27PM 39.2000 -76.8833 284° West 225 259 7,200 2,460 Climbing Potomac TRACON
05:28PM 39.2167 -76.9500 288° West 255 293 8,900 1,860 Climbing Potomac TRACON
05:29PM 39.2167 -77.0667 270° West 297 342 10,800 1,860 Climbing Potomac TRACON
05:30PM 39.2333 -77.1667 282° West 359 413 12,700 2,100 Climbing Potomac TRACON
05:32PM 39.3486 -77.3628 307° West 386 444 17,000 1,440 Climbing Washington Center
05:33PM 39.3947 -77.4794 297° West 374 430 17,000 420 Level Washington Center
05:34PM 39.4447 -77.6125 296° West 369 425 17,900 1,560 Climbing Washington Center
05:35PM 39.4903 -77.7400 295° West 379 436 20,200 2,160 Climbing Washington Center
05:36PM 39.5381 -77.8708 295° West 390 449 22,200 1,920 Climbing Washington Center
05:38PM 39.6264 -78.1519 292° West 419 482 26,200 1,740 Climbing Cleveland Center
05:39PM 39.6689 -78.2933 291° West 419 482 27,700 1,440 Climbing Cleveland Center
05:40PM 39.7114 -78.4350 291° West 424 488 29,100 1,440 Climbing Cleveland Center
05:41PM 39.7514 -78.5822 290° West 429 494 30,600 1,440 Climbing Cleveland Center
05:42PM 39.7914 -78.7242 290° West 423 487 32,000 1,320 Climbing Cleveland Center
05:43PM 39.8333 -78.8664 291° West 423 487 33,300 960 Climbing Cleveland Center
05:44PM 39.8814 -79.0167 293° West 423 487 34,000 300 Climbing Cleveland Center
05:45PM 39.9456 -79.1453 303° West 418 481 34,000  Level Cleveland Center
05:46PM 40.0075 -79.2711 303° West 418 481 34,000  Level Cleveland Center
05:47PM 40.0714 -79.4031 302° West 424 488 34,000 180 Level Cleveland Center
05:48PM 40.1331 -79.5294 303° West 424 488 34,400 660 Climbing Cleveland Center
05:49PM 40.1969 -79.6589 303° West 424 488 35,400 780 Climbing Cleveland Center
05:50PM 40.2583 -79.7858 302° West 424 488 36,000 300 Climbing Cleveland Center
05:51PM 40.3217 -79.9186 302° West 424 488 36,000  Level Cleveland Center
05:52PM 40.3744 -80.0381 300° West 429 494 36,000  Level Cleveland Center
05:53PM 40.4375 -80.1683 302° West 429 494 36,000  Level Cleveland Center
05:54PM 40.5003 -80.2992 302° West 424 488 36,000  Level Cleveland Center
05:55PM 40.5653 -80.4300 303° West 424 488 36,000  Level Cleveland Center
05:56PM 40.6300 -80.5750 300° West 424 488 36,000  Level Cleveland Center
05:57PM 40.6778 -80.6761 302° West 418 481 36,000  Level Cleveland Center
05:58PM 40.7444 -80.8242 301° West 423 487 36,000  Level Cleveland Center
05:59PM 40.7961 -80.9617 296° West 418 481 36,000  Level Cleveland Center
06:00PM 40.8517 -81.1156 296° West 418 481 36,000  Level Cleveland Center
06:01PM 40.8992 -81.2397 297° West 424 488 36,000  Level Cleveland Center
06:02PM 40.9503 -81.3803 296° West 424 488 36,000  Level Cleveland Center
06:03PM 41.0033 -81.5214 297° West 424 488 36,000  Level Cleveland Center
06:04PM 41.0544 -81.6597 296° West 424 488 36,000  Level Cleveland Center
06:05PM 41.1133 -81.8150 297° West 424 488 36,000  Level Cleveland Center
06:06PM 41.1639 -81.9372 299° West 424 488 36,000  Level Cleveland Center
06:07PM 41.2164 -82.0764 297° West 424 488 36,000  Level Cleveland Center
06:08PM 41.2686 -82.2325 294° West 424 488 36,000  Level Cleveland Center
06:09PM 41.3186 -82.3719 296° West 419 482 36,000  Level Cleveland Center
06:10PM 41.3683 -82.5089 296° West 413 475 36,000  Level Cleveland Center
06:11PM 41.4122 -82.6292 296° West 406 467 36,000  Level Cleveland Center
06:12PM 41.4639 -82.7694 296° West 406 467 36,000  Level Cleveland Center
06:13PM 41.5111 -82.9042 295° West 406 467 36,000  Level Cleveland Center
06:14PM 41.5606 -83.0392 296° West 406 467 36,000  Level Cleveland Center
06:15PM 41.6097 -83.1742 296° West 399 459 36,000  Level Cleveland Center
06:16PM 41.6603 -83.3264 294° West 399 459 36,000  Level Cleveland Center
06:17PM 41.7089 -83.4647 295° West 404 465 36,000  Level Cleveland Center
06:18PM 41.7556 -83.6033 294° West 404 465 36,000  Level Cleveland Center
06:19PM 41.8039 -83.7422 295° West 404 465 36,000  Level Cleveland Center
06:20PM 41.8519 -83.8811 295° West 404 465 36,000  Level Cleveland Center
06:21PM 41.8964 -84.0061 296° West 404 465 36,000  Level Cleveland Center
06:22PM 41.9464 -84.1456 296° West 404 465 36,000  Level Cleveland Center
06:23PM 42.0058 -84.3028 297° West 409 471 36,000  Level Cleveland Center
06:24PM 42.0422 -84.4228 292° West 422 486 36,000  Level Chicago Center
06:25PM 42.0908 -84.5650 295° West 418 481 36,000  Level Chicago Center
06:26PM 42.1375 -84.7081 294° West 419 482 36,000  Level Chicago Center
06:27PM 42.1850 -84.8500 294° West 417 480 36,000  Level Chicago Center
06:28PM 42.2322 -84.9933 294° West 418 481 36,000  Level Chicago Center
06:29PM 42.2808 -85.1339 295° West 416 479 36,000  Level Chicago Center
06:30PM 42.3378 -85.3067 294° West 419 482 36,000  Level Chicago Center
06:31PM 42.3836 -85.4508 293° West 417 480 36,000  Level Chicago Center
06:32PM 42.4297 -85.5942 294° West 415 478 36,000  Level Chicago Center
06:33PM 42.4775 -85.7353 295° West 413 475 36,000  Level Chicago Center
06:34PM 42.5236 -85.8789 294° West 414 476 36,000  Level Chicago Center
06:35PM 42.5683 -86.0228 293° West 413 475 36,000  Level Chicago Center
06:37PM 42.6144 -86.1678 293° West 416 479 36,000  Level Chicago Center
06:38PM 42.6689 -86.3400 293° West 410 472 36,000  Level Chicago Center
06:39PM 42.7136 -86.4808 293° West 405 466 36,000  Level Chicago Center
06:40PM 42.7589 -86.6247 293° West 411 473 36,000  Level Chicago Center
06:41PM 42.8039 -86.7694 293° West 415 478 36,000  Level Chicago Center
06:42PM 42.8475 -86.9125 293° West 411 473 36,000  Level Chicago Center
06:43PM 42.8914 -87.0561 293° West 410 472 36,000  Level Chicago Center
06:44PM 42.9350 -87.2011 292° West 412 474 36,000  Level Chicago Center
06:45PM 42.9875 -87.3742 293° West 413 475 36,000  Level Chicago Center
06:46PM 43.0333 -87.5194 293° West 411 473 36,000  Level Chicago Center
06:47PM 43.0769 -87.6642 292° West 411 473 36,000  Level Chicago Center
06:48PM 43.1211 -87.8044 293° West 402 463 36,000  Level Chicago Center
06:49PM 43.1636 -87.9517 292° West 411 473 36,000  Level Chicago Center
06:50PM 43.2142 -88.1225 292° West 414 476 36,000  Level Chicago Center
06:51PM 43.2567 -88.2706 292° West 415 478 36,000  Level Chicago Center
06:52PM 43.2986 -88.4192 291° West 414 476 36,000  Level Chicago Center
06:53PM 43.3436 -88.5706 292° West 417 480 36,000  Level Chicago Center
06:54PM 43.3872 -88.7217 292° West 416 479 36,000  Level Chicago Center
06:55PM 43.4303 -88.8689 292° West 413 475 36,000  Level Chicago Center
06:56PM 43.4728 -89.0167 292° West 413 475 36,000  Level Chicago Center
06:57PM 43.5214 -89.1878 291° West 412 474 36,000  Level Chicago Center
06:58PM 43.5631 -89.3356 291° West 414 476 36,000  Level Chicago Center
06:59PM 43.6033 -89.4814 291° West 408 470 36,000  Level Chicago Center
07:00PM 43.6431 -89.6297 290° West 411 473 36,000  Level Chicago Center
07:01PM 43.6856 -89.7767 292° West 411 473 36,000  Level Chicago Center
07:02PM 43.7256 -89.9219 291° West 405 466 36,000  Level Chicago Center
07:03PM 43.7711 -90.0928 290° West 405 466 36,000  Level Chicago Center
07:04PM 43.7975 -90.1881 291° West 403 464 36,000  Level Minneapolis Center
07:05PM 43.8436 -90.3550 291° West 398 458 36,000  Level Minneapolis Center
07:06PM 43.8819 -90.4994 290° West 399 459 36,000  Level Minneapolis Center
07:07PM 43.9219 -90.6481 291° West 400 460 36,000  Level Minneapolis Center
07:08PM 43.9603 -90.7903 291° West 399 459 36,000  Level Minneapolis Center
07:09PM 43.9972 -90.9328 290° West 398 458 36,000  Level Minneapolis Center
07:10PM 44.0358 -91.0761 291° West 401 461 36,000  Level Minneapolis Center
07:12PM 44.0878 -91.2761 290° West 397 457 36,000  Level Minneapolis Center
07:13PM 44.1236 -91.4158 290° West 399 459 36,000  Level Minneapolis Center
07:14PM 44.1608 -91.5589 290° West 397 457 36,000  Level Minneapolis Center
07:15PM 44.1972 -91.7014 290° West 393 452 36,000  Level Minneapolis Center
07:16PM 44.2383 -91.8744 288° West 392 451 36,000  Level Minneapolis Center
07:17PM 44.2744 -92.0169 290° West 392 451 36,000  Level Minneapolis Center
07:18PM 44.3114 -92.1606 290° West 393 452 36,000  Level Minneapolis Center
07:19PM 44.3475 -92.3031 290° West 390 449 36,000  Level Minneapolis Center
07:20PM 44.3825 -92.4458 289° West 390 449 36,000  Level Minneapolis Center
07:21PM 44.4178 -92.5897 289° West 390 449 36,000  Level Minneapolis Center
07:22PM 44.4597 -92.7611 289° West 388 447 36,000  Level Minneapolis Center
07:23PM 44.4939 -92.9031 289° West 388 447 36,000  Level Minneapolis Center
07:24PM 44.5286 -93.0464 289° West 388 447 36,000  Level Minneapolis Center
07:25PM 44.5639 -93.1925 289° West 391 450 36,000  Level Minneapolis Center
07:26PM 44.5972 -93.3394 288° West 389 448 36,000  Level Minneapolis Center
07:27PM 44.6331 -93.4858 289° West 392 451 36,000  Level Minneapolis Center
07:28PM 44.6672 -93.6297 289° West 387 445 36,000  Level Minneapolis Center
07:29PM 44.7006 -93.7731 288° West 385 443 36,000  Level Minneapolis Center
07:30PM 44.7400 -93.9442 288° West 384 442 36,000  Level Minneapolis Center
07:31PM 44.7731 -94.0861 288° West 382 440 36,000  Level Minneapolis Center
07:32PM 44.8061 -94.2297 288° West 385 443 36,000  Level Minneapolis Center
07:34PM 44.8442 -94.3992 288° West 380 437 36,000  Level Minneapolis Center
07:35PM 44.8758 -94.5403 288° West 379 436 36,000  Level Minneapolis Center
07:36PM 44.9097 -94.6933 287° West 376 433 36,000  Level Minneapolis Center
07:37PM 44.9408 -94.8333 287° West 376 433 36,000  Level Minneapolis Center
07:38PM 44.9722 -94.9728 288° West 375 432 36,000 480 Level Minneapolis Center
07:39PM 45.0081 -95.1422 287° West 377 434 37,100 900 Climbing Minneapolis Center
07:40PM 45.0336 -95.2547 288° West 378 435 37,900 420 Climbing Minneapolis Center
07:41PM 45.0686 -95.4214 287° West 372 428 38,000  Climbing Minneapolis Center
07:42PM 45.0997 -95.5622 287° West 376 433 38,000  Level Minneapolis Center
07:43PM 45.1358 -95.7322 287° West 378 435 38,000  Level Minneapolis Center
07:44PM 45.1717 -95.9031 287° West 379 436 38,000  Level Minneapolis Center
07:45PM 45.2006 -96.0433 286° West 375 432 38,000  Level Minneapolis Center
07:46PM 45.2303 -96.1819 287° West 371 427 38,000  Level Minneapolis Center
07:47PM 45.2589 -96.3214 286° West 371 427 38,000  Level Minneapolis Center
07:49PM 45.2933 -96.4886 286° West 371 427 38,000  Level Minneapolis Center
07:50PM 45.3272 -96.6544 286° West 367 422 38,000  Level Minneapolis Center
07:51PM 45.3611 -96.8219 286° West 369 425 38,000  Level Minneapolis Center
07:52PM 45.3892 -96.9644 286° West 374 430 38,000  Level Minneapolis Center
07:53PM 45.4169 -97.1064 286° West 376 433 38,000  Level Minneapolis Center
07:54PM 45.4453 -97.2447 286° West 371 427 38,000  Level Minneapolis Center
07:55PM 45.4781 -97.4136 286° West 371 427 38,000  Level Minneapolis Center
07:56PM 45.5114 -97.5822 286° West 371 427 38,000  Level Minneapolis Center
07:57PM 45.5386 -97.7247 285° West 373 429 38,000  Level Minneapolis Center
07:58PM 45.5661 -97.8661 286° West 372 428 38,000  Level Minneapolis Center
07:59PM 45.5925 -98.0092 285° West 373 429 38,000  Level Minneapolis Center
08:00PM 45.6208 -98.1542 286° West 374 430 38,000  Level Minneapolis Center
08:01PM 45.6525 -98.3244 285° West 372 428 38,000  Level Minneapolis Center
08:02PM 45.6783 -98.4658 285° West 370 426 38,000  Level Minneapolis Center
08:04PM 45.7044 -98.6056 285° West 367 422 38,000  Level Minneapolis Center
08:05PM 45.7350 -98.7744 285° West 367 422 38,000  Level Minneapolis Center
08:07PM 45.7953 -99.1122 284° West 365 420 38,000  Level Minneapolis Center
08:08PM 45.8197 -99.2522 284° West 364 419 38,000  Level Minneapolis Center
08:09PM 45.8444 -99.3922 284° West 364 419 38,000  Level Minneapolis Center
08:10PM 45.8692 -99.5339 284° West 366 421 38,000  Level Minneapolis Center
08:11PM 45.8931 -99.6739 284° West 365 420 38,000  Level Minneapolis Center
08:12PM 45.9114 -99.7861 283° West 364 419 38,000  Level Minneapolis Center
08:13PM 45.9456 -99.9892 284° West 370 426 38,000  Level Minneapolis Center
08:14PM 45.9689 -100.1289 284° West 368 423 38,000  Level Minneapolis Center
08:15PM 45.9928 -100.2733 283° West 369 425 38,000  Level Minneapolis Center
08:16PM 46.0172 -100.4189 284° West 373 429 38,000  Level Minneapolis Center
08:17PM 46.0389 -100.5622 282° West 371 427 38,000  Level Minneapolis Center
08:18PM 46.0625 -100.7039 284° West 369 425 38,000  Level Minneapolis Center
08:19PM 46.0906 -100.8744 283° West 367 422 38,000  Level Minneapolis Center
08:20PM 46.1128 -101.0175 283° West 367 422 38,000  Level Minneapolis Center
08:21PM 46.1353 -101.1619 283° West 368 423 38,000  Level Minneapolis Center
08:22PM 46.1592 -101.3067 283° West 371 427 38,000  Level Minneapolis Center
08:23PM 46.1817 -101.4511 283° West 371 427 38,000  Level Minneapolis Center
08:25PM 46.2094 -101.6236 283° West 370 426 38,000  Level Minneapolis Center
08:26PM 46.2325 -101.7664 283° West 368 423 38,000  Level Minneapolis Center
08:27PM 46.2547 -101.9097 283° West 367 422 38,000  Level Minneapolis Center
08:28PM 46.2753 -102.0411 283° West 367 422 38,000  Level Minneapolis Center
08:29PM 46.3017 -102.2125 283° West 366 421 38,000  Level Minneapolis Center
08:30PM 46.3225 -102.3558 282° West 365 420 38,000  Level Minneapolis Center
08:31PM 46.3439 -102.5019 282° West 369 425 38,000  Level Minneapolis Center
08:32PM 46.3644 -102.6456 282° West 367 422 38,000  Level Minneapolis Center
08:33PM 46.3850 -102.7922 282° West 370 426 38,000  Level Minneapolis Center
08:34PM 46.4058 -102.9389 282° West 371 427 38,000  Level Minneapolis Center
08:35PM 46.4267 -103.0883 281° West 375 432 38,000  Level Minneapolis Center
08:36PM 46.4517 -103.2689 281° West 379 436 38,000  Level Minneapolis Center
08:37PM 46.4669 -103.4200 278° West 380 437 38,000  Level Minneapolis Center
08:38PM 46.4567 -103.5703 264° West 376 433 38,000  Level Minneapolis Center
08:39PM 46.4469 -103.7225 265° West 376 433 38,000  Level Minneapolis Center
08:40PM 46.4372 -103.8742 265° West 377 434 38,000  Level Minneapolis Center
08:41PM 46.4283 -104.0236 265° West 374 430 38,000  Level Minneapolis Center
08:42PM 46.4247 -104.2044 268° West 374 430 38,000  Level Minneapolis Center
08:43PM 46.4311 -104.3242 274° West 375 432 38,000  Level Minneapolis Center
08:44PM 46.4567 -104.4981 282° West 371 427 38,000  Level Minneapolis Center
08:46PM 46.4847 -104.7025 281° West 370 426 38,000  Level Salt Lake Center
08:47PM 46.5036 -104.8389 281° West 371 427 38,000  Level Salt Lake Center
08:48PM 46.5231 -104.9842 281° West 370 426 38,000  Level Salt Lake Center
08:49PM 46.5467 -105.1592 281° West 370 426 38,000  Level Salt Lake Center
08:50PM 46.5658 -105.3047 281° West 369 425 38,000  Level Salt Lake Center
08:51PM 46.5867 -105.4564 281° West 376 433 38,000  Level Salt Lake Center
08:52PM 46.6075 -105.6056 282° West 378 435 38,000  Level Salt Lake Center
08:53PM 46.6269 -105.7558 281° West 379 436 38,000  Level Salt Lake Center
08:54PM 46.6475 -105.9072 281° West 381 438 38,000  Level Salt Lake Center
08:55PM 46.6669 -106.0586 281° West 383 441 38,000  Level Salt Lake Center
08:56PM 46.6892 -106.2369 280° West 379 436 38,000  Level Salt Lake Center
08:57PM 46.7081 -106.3861 281° West 377 434 38,000  Level Salt Lake Center
08:58PM 46.7253 -106.5358 280° West 377 434 38,000  Level Salt Lake Center
08:59PM 46.7450 -106.6864 281° West 379 436 38,000  Level Salt Lake Center
09:00PM 46.7614 -106.8353 279° West 377 434 38,000  Level Salt Lake Center
09:01PM 46.7792 -106.9839 280° West 375 432 38,000  Level Salt Lake Center
09:02PM 46.8003 -107.1631 280° West 375 432 38,000  Level Salt Lake Center
09:03PM 46.8178 -107.3111 280° West 374 430 38,000  Level Salt Lake Center
09:04PM 46.8347 -107.4592 280° West 372 428 38,000  Level Salt Lake Center
09:05PM 46.8508 -107.6103 279° West 378 435 38,000  Level Salt Lake Center
09:06PM 46.8683 -107.7597 280° West 376 433 38,000  Level Salt Lake Center
09:07PM 46.8836 -107.9114 278° West 379 436 38,000  Level Salt Lake Center
09:08PM 46.9044 -108.0919 280° West 378 435 38,000  Level Salt Lake Center
09:09PM 46.9194 -108.2453 278° West 381 438 38,000  Level Salt Lake Center
09:10PM 46.9364 -108.3992 279° West 384 442 38,000  Level Salt Lake Center
09:11PM 46.9519 -108.5547 278° West 389 448 38,000  Level Salt Lake Center
09:12PM 46.9686 -108.7119 279° West 391 450 38,000  Level Salt Lake Center
09:13PM 46.9842 -108.8678 278° West 390 449 38,000  Level Salt Lake Center
09:14PM 47.0019 -109.0389 279° West 394 453 38,000  Level Salt Lake Center
09:15PM 47.0158 -109.1958 277° West 390 449 38,000  Level Salt Lake Center
09:16PM 47.0306 -109.3531 278° West 390 449 38,000  Level Salt Lake Center
09:17PM 47.0461 -109.5100 278° West 390 449 38,000  Level Salt Lake Center
09:18PM 47.0642 -109.6978 278° West 389 448 38,000  Level Salt Lake Center
09:19PM 47.0789 -109.8542 278° West 389 448 38,000  Level Salt Lake Center
09:21PM 47.0931 -110.0144 277° West 393 452 38,000  Level Salt Lake Center
09:22PM 47.1075 -110.1736 278° West 395 455 38,000  Level Salt Lake Center
09:23PM 47.1214 -110.3347 277° West 397 457 38,000  Level Salt Lake Center
09:24PM 47.1344 -110.4958 277° West 398 458 38,000  Level Salt Lake Center
09:25PM 47.1483 -110.6550 277° West 393 452 38,000  Level Salt Lake Center
09:26PM 47.1622 -110.8133 277° West 392 451 38,000  Level Salt Lake Center
09:27PM 47.1772 -111.0050 277° West 391 450 38,000  Level Salt Lake Center
09:28PM 47.1894 -111.1653 276° West 393 452 38,000  Level Salt Lake Center
09:29PM 47.2022 -111.3239 277° West 390 449 38,000  Level Salt Lake Center
09:30PM 47.2144 -111.4822 277° West 388 447 38,000  Level Salt Lake Center
09:31PM 47.2264 -111.6400 276° West 387 445 38,000  Level Salt Lake Center
09:32PM 47.2389 -111.7997 277° West 391 450 38,000  Level Salt Lake Center
09:33PM 47.2503 -111.9603 276° West 393 452 38,000  Level Salt Lake Center
09:34PM 47.2617 -112.1197 276° West 392 451 38,000  Level Salt Lake Center
09:35PM 47.2731 -112.2817 276° West 396 456 38,000  Level Salt Lake Center
09:36PM 47.2869 -112.4747 276° West 396 456 38,000  Level Salt Lake Center
09:37PM 47.2972 -112.6381 275° West 399 459 38,000  Level Salt Lake Center
09:38PM 47.3075 -112.8011 275° West 400 460 38,000  Level Salt Lake Center
09:39PM 47.3181 -112.9664 275° West 399 459 38,000  Level Salt Lake Center
09:40PM 47.3286 -113.1292 276° West 398 458 38,000  Level Salt Lake Center
09:41PM 47.3383 -113.2919 275° West 400 460 38,000  Level Salt Lake Center
09:42PM 47.3478 -113.4539 275° West 397 457 38,000  Level Salt Lake Center
09:43PM 47.3572 -113.6144 275° West 393 452 38,000  Level Salt Lake Center
09:44PM 47.3689 -113.8081 275° West 394 453 38,000  Level Salt Lake Center
09:45PM 47.3778 -113.9697 275° West 395 455 38,000  Level Salt Lake Center
09:47PM 47.3889 -114.1947 274° West 393 452 38,000  Level Seattle Center
09:47PM 47.3947 -114.2906 275° West 393 452 38,000  Level Salt Lake Center
09:48PM 47.4033 -114.4567 274° West 403 464 38,000  Level Salt Lake Center
09:49PM 47.4114 -114.6206 274° West 401 461 38,000  Level Salt Lake Center
09:50PM 47.4186 -114.7869 274° West 404 465 38,000  Level Salt Lake Center
09:51PM 47.4269 -114.9519 274° West 402 463 38,000  Level Salt Lake Center
09:52PM 47.4364 -115.1503 274° West 402 463 38,000  Level Salt Lake Center
09:53PM 47.4428 -115.3136 273° West 400 460 38,000  Level Salt Lake Center
09:54PM 47.4503 -115.4775 274° West 400 460 38,000  Level Salt Lake Center
09:55PM 47.4567 -115.6400 273° West 397 457 38,000  Level Salt Lake Center
09:57PM 47.4661 -115.8022 275° West 397 457 38,000  Level Salt Lake Center
09:58PM 47.4772 -115.9664 276° West 401 461 38,000  Level Salt Lake Center
09:59PM 47.4861 -116.1406 274° West 396 456 38,000  Level Salt Lake Center
10:00PM 47.4953 -116.3031 275° West 398 458 38,000  Level Salt Lake Center
10:01PM 47.5086 -116.5311 275° West 398 458 38,000  Level Seattle Center
10:02PM 47.5178 -116.6947 275° West 400 460 38,000  Level Seattle Center
10:03PM 47.5272 -116.8575 275° West 399 459 38,000  Level Seattle Center
10:04PM 47.5375 -117.0422 275° West 402 463 38,000  Level Seattle Center
10:05PM 47.5450 -117.2053 274° West 400 460 38,000  Level Seattle Center
10:06PM 47.5519 -117.3667 274° West 406 467 38,000  Level Seattle Center
10:07PM 47.5603 -117.5286 274° West 399 459 38,000  Level Seattle Center
10:08PM 47.5700 -117.6933 275° West 401 461 38,000  Level Seattle Center
10:09PM 47.5867 -117.8572 279° West 404 465 38,000  Level Seattle Center
10:10PM 47.6017 -118.0208 278° West 403 464 38,000  Level Seattle Center
10:11PM 47.6172 -118.1853 278° West 404 465 38,000  Level Seattle Center
10:12PM 47.6331 -118.3503 278° West 404 465 38,000  Level Seattle Center
10:13PM 47.6503 -118.5475 277° West 404 465 38,000  Level Seattle Center
10:14PM 47.6653 -118.7122 278° West 403 464 38,000  Level Seattle Center
10:15PM 47.6789 -118.8758 277° West 402 463 38,000  Level Seattle Center
10:16PM 47.6925 -119.0378 277° West 398 458 38,000  Level Seattle Center
10:17PM 47.7064 -119.2017 277° West 399 459 38,000  Level Seattle Center
10:18PM 47.7189 -119.3653 277° West 400 460 38,000  Level Seattle Center
10:19PM 47.7314 -119.5308 276° West 404 465 38,000  Level Seattle Center
10:20PM 47.7453 -119.6947 277° West 402 463 38,000  Level Seattle Center
10:21PM 47.7589 -119.8597 277° West 403 464 38,000  Level Seattle Center
10:22PM 47.7714 -120.0247 276° West 402 463 38,000  Level Seattle Center
10:23PM 47.7828 -120.1881 276° West 400 460 38,000 -240 Level Seattle Center
10:24PM 47.7969 -120.3844 276° West 399 459 37,600 -1,500 Descending Seattle Center
10:25PM 47.8089 -120.5461 276° West 397 457 35,000 -2,760 Descending Seattle Center
10:26PM 47.8203 -120.7089 276° West 397 457 32,000 -2,640 Descending Seattle Center
10:27PM 47.8356 -120.8756 278° West 399 459 29,700 -2,220 Descending Seattle Center
10:28PM 47.8456 -121.0314 276° West 386 444 27,500 -2,220 Descending Seattle Center
10:29PM 47.8556 -121.1844 276° West 376 433 25,300 -2,400 Descending Seattle Center
10:30PM 47.8639 -121.3531 274° West 363 418 22,700 -2,220 Descending Seattle Center
10:32PM 47.8744 -121.4814 277° West 363 418 20,900 -1,920 Descending Seattle Center
10:33PM 47.8822 -121.6242 275° West 352 405 18,900 -1,920 Descending Seattle Center
10:34PM 47.8400 -121.7658 246° West 334 384 17,000 -1,920 Descending Seattle Center
10:35PM 47.7717 -121.8586 222° Southwest 326 375 15,100 -1,740 Descending Seattle Center
10:36PM 47.7058 -121.9494 223° Southwest 322 371 13,500 -1,680 Descending Seattle Center
10:36PM 47.6442 -122.0300 221° Southwest 323 372 11,900 -1,500 Descending Seattle Center
10:38PM 47.5767 -122.1236 223° Southwest 307 353 10,500 -1,080 Descending Seattle Center
10:39PM 47.5094 -122.1742 207° Southwest 281 323 9,600 -1,260 Descending Seattle Center
10:40PM 47.4278 -122.1669 177° South 291 335 8,000 -1,680 Descending Seattle Center
10:41PM 47.3419 -122.1622 178° South 287 330 6,300 -1,440 Descending Seattle Center
10:42PM 47.2628 -122.1569 177° South 286 329 5,200 -1,200 Descending Seattle Center
10:43PM 47.1992 -122.1953 202° Southwest 274 315 3,900 -1,140 Descending Seattle Center
10:44PM 47.2425 -122.2694 311° West 244 281 3,000 -480 Descending Seattle Center
10:45PM 47.2869 -122.3133 326° Northwest 202 232 3,000 -360 Level Seattle Center
10:46PM 47.3353 -122.3194 355° North 167 192 2,400 -780 Descending Seattle Center
10:47PM 47.3819 -122.3200 360° North 164 189 1,500 -780 Descending Seattle Center
10:48PM 47.4178 -122.3200 360° North 127 146 900 -540 Descending Seattle Center
10:49PM 47.4622 -122.3183 North 131 151 400 -480 Descending Seattle Center